Time;durP1;ratioP1;P1;durP2;ratioP2;P2;SDS_P1;SDS_P2;PMS_P1;PMS_P2;Temp;Humidity;BMP_temperature;BMP_pressure;BME280_temperature;BME280_humidity;BME280_pressure;Samples;Min_cycle;Max_cycle;Signal;HPM_P1;HPM_P2
2023/04/14 00:00:00;;;;;;;3.23;1.40;;;11.20;76.00;11.10;95494.00;;;;5021785;28;20740;-81
2023/04/14 00:02:27;;;;;;;1.70;1.50;;;11.20;76.10;11.10;95494.00;;;;5022146;28;20240;-82
2023/04/14 00:04:55;;;;;;;1.40;1.30;;;11.20;76.10;11.10;95489.00;;;;5004348;28;20230;-82
2023/04/14 00:07:22;;;;;;;2.53;1.43;;;11.20;76.30;11.10;95496.00;;;;5011557;28;20205;-82
2023/04/14 00:09:49;;;;;;;1.90;1.60;;;11.20;77.10;11.10;95489.00;;;;5031461;28;20221;-81
2023/04/14 00:12:17;;;;;;;1.30;1.20;;;11.10;76.50;11.10;95479.00;;;;5016897;28;20201;-81
2023/04/14 00:14:45;;;;;;;2.13;1.30;;;11.20;76.80;11.10;95490.00;;;;5034685;28;20240;-82
2023/04/14 00:17:12;;;;;;;3.87;1.50;;;11.20;76.90;11.10;95493.00;;;;5023157;28;20198;-81
2023/04/14 00:19:40;;;;;;;3.43;1.50;;;11.20;76.90;11.10;95491.00;;;;5027624;28;20199;-81
2023/04/14 00:22:07;;;;;;;2.60;1.20;;;11.20;76.90;11.20;95499.00;;;;5026525;28;20277;-82
2023/04/14 00:24:39;;;;;;;3.20;1.30;;;11.20;77.00;11.20;95497.00;;;;4987372;28;20222;-82
2023/04/14 00:27:07;;;;;;;1.90;1.00;;;11.20;77.10;11.20;95492.00;;;;5002529;28;20282;-82
2023/04/14 00:29:34;;;;;;;1.03;0.97;;;11.20;77.00;11.20;95486.00;;;;5002865;28;20266;-82
2023/04/14 00:32:03;;;;;;;1.30;0.90;;;11.20;76.80;11.20;95482.00;;;;5014568;28;20197;-82
2023/04/14 00:34:30;;;;;;;1.90;0.90;;;11.20;76.70;11.20;95483.00;;;;5019822;28;20249;-82
2023/04/14 00:36:57;;;;;;;1.87;0.60;;;11.20;76.70;11.10;95483.00;;;;5019783;28;20230;-82
2023/04/14 00:39:24;;;;;;;1.23;0.80;;;11.20;76.70;11.10;95476.00;;;;5020941;28;20290;-82
2023/04/14 00:41:51;;;;;;;0.60;0.60;;;11.20;76.50;11.10;95471.00;;;;5020502;28;20229;-82
2023/04/14 00:44:19;;;;;;;0.97;0.50;;;11.20;76.40;11.10;95468.00;;;;5021627;28;20224;-82
2023/04/14 00:46:47;;;;;;;6.47;1.00;;;11.20;76.40;11.10;95473.00;;;;5003694;28;20286;-82
2023/04/14 00:49:16;;;;;;;0.57;0.40;;;11.10;76.30;11.00;95477.00;;;;5028913;28;20284;-82
2023/04/14 00:51:46;;;;;;;1.13;0.50;;;11.10;76.90;11.00;95468.00;;;;5021382;28;20562;-83
2023/04/14 00:54:16;;;;;;;0.50;0.50;;;11.10;75.90;10.90;95472.00;;;;5022021;28;20217;-82
2023/04/14 00:56:44;;;;;;;0.97;0.40;;;11.10;76.00;10.90;95471.00;;;;5020624;28;20202;-84
2023/04/14 00:59:14;;;;;;;0.40;0.40;;;11.10;75.90;10.90;95465.00;;;;5020131;28;20269;-82
2023/04/14 01:01:41;;;;;;;1.30;0.60;;;11.00;76.00;10.90;95476.00;;;;5004294;28;20209;-82
2023/04/14 01:04:09;;;;;;;0.73;0.40;;;11.00;76.10;10.90;95475.00;;;;5020949;28;20222;-82
2023/04/14 01:06:38;;;;;;;0.67;0.50;;;11.00;76.20;10.90;95478.00;;;;5003756;28;20226;-82
2023/04/14 01:09:06;;;;;;;1.40;0.43;;;11.00;76.30;10.90;95466.00;;;;5019722;28;20281;-82
2023/04/14 01:11:48;;;;;;;0.60;0.60;;;11.00;76.40;10.80;95468.00;;;;5019984;28;20230;-82
2023/04/14 01:14:30;;;;;;;0.70;0.70;;;10.90;76.10;10.80;95470.00;;;;5021407;28;20290;-82
2023/04/14 01:17:06;;;;;;;0.80;0.77;;;10.90;76.20;10.80;95477.00;;;;5020028;28;20200;-82
2023/04/14 01:19:59;;;;;;;1.53;0.80;;;10.90;76.40;10.70;95476.00;;;;5002875;28;20206;-82
2023/04/14 01:22:36;;;;;;;0.70;0.70;;;10.90;76.60;10.70;95475.00;;;;5010262;28;20830;-83
2023/04/14 01:25:31;;;;;;;0.80;0.80;;;10.90;76.70;10.70;95475.00;;;;5017118;28;20221;-83
2023/04/14 01:28:16;;;;;;;1.00;0.73;;;10.80;76.60;10.70;95481.00;;;;5009706;28;20213;-83
2023/04/14 01:31:02;;;;;;;1.10;1.00;;;10.90;76.70;10.70;95489.00;;;;5018592;28;20197;-84
2023/04/14 01:33:38;;;;;;;1.27;0.87;;;10.80;76.70;10.70;95479.00;;;;4995487;28;20252;-82
2023/04/14 01:36:12;;;;;;;1.00;0.90;;;10.80;76.60;10.70;95485.00;;;;5015247;28;20306;-83
2023/04/14 01:38:44;;;;;;;1.20;1.10;;;10.80;76.80;10.70;95483.00;;;;4986384;28;20575;-82
2023/04/14 01:41:15;;;;;;;1.00;1.00;;;10.80;77.00;10.60;95485.00;;;;5020237;28;20624;-82
2023/04/14 01:43:47;;;;;;;0.97;0.90;;;10.80;77.10;10.60;95481.00;;;;5021195;28;20248;-82
2023/04/14 01:46:17;;;;;;;1.30;1.03;;;10.80;77.30;10.70;95471.00;;;;5019147;28;20313;-82
2023/04/14 01:48:47;;;;;;;1.13;0.90;;;10.80;77.50;10.60;95472.00;;;;5017527;28;20286;-83
2023/04/14 01:51:18;;;;;;;2.40;1.00;;;10.80;77.50;10.60;95474.00;;;;5020406;28;20236;-82
2023/04/14 01:53:49;;;;;;;1.13;1.07;;;10.70;77.50;10.60;95468.00;;;;5019933;28;20594;-84
2023/04/14 01:56:18;;;;;;;1.30;1.20;;;10.70;77.70;10.60;95470.00;;;;5001420;28;20283;-83
2023/04/14 01:58:49;;;;;;;0.90;0.90;;;10.70;77.60;10.60;95480.00;;;;5019759;28;20284;-83
2023/04/14 02:01:17;;;;;;;1.40;1.30;;;10.70;77.50;10.60;95473.00;;;;4996817;28;20281;-82
2023/04/14 02:03:49;;;;;;;1.80;1.40;;;10.70;77.60;10.60;95483.00;;;;5002714;28;20225;-84
2023/04/14 02:06:21;;;;;;;1.40;1.30;;;10.70;77.60;10.60;95482.00;;;;5020278;28;20225;-82
2023/04/14 02:08:49;;;;;;;1.33;1.17;;;10.70;77.70;10.70;95474.00;;;;5002703;28;20666;-82
2023/04/14 02:11:19;;;;;;;1.30;1.20;;;10.70;77.80;10.70;95473.00;;;;5019201;28;20198;-82
2023/04/14 02:13:48;;;;;;;1.70;1.47;;;10.70;77.90;10.70;95468.00;;;;5018856;28;20210;-82
2023/04/14 02:16:17;;;;;;;2.43;1.47;;;10.70;77.90;10.70;95470.00;;;;5020399;28;20233;-82
2023/04/14 02:18:47;;;;;;;1.50;1.40;;;10.70;77.80;10.70;95465.00;;;;5019486;28;20289;-82
2023/04/14 02:21:20;;;;;;;1.50;1.33;;;10.70;77.80;10.70;95466.00;;;;5019479;28;20218;-83
2023/04/14 02:23:47;;;;;;;1.60;1.40;;;10.70;77.70;10.60;95463.00;;;;5020545;28;20282;-82
2023/04/14 02:26:21;;;;;;;1.40;1.30;;;10.70;77.50;10.60;95464.00;;;;5025177;28;20316;-82
2023/04/14 02:28:54;;;;;;;1.20;1.10;;;10.70;77.40;10.60;95449.00;;;;5012434;28;20732;-83
2023/04/14 02:31:27;;;;;;;1.30;1.20;;;10.70;77.40;10.60;95462.00;;;;5028143;28;20758;-82
2023/04/14 02:34:00;;;;;;;1.37;0.90;;;10.70;77.50;10.60;95445.00;;;;5022951;28;20289;-83
2023/04/14 02:36:35;;;;;;;1.53;1.20;;;10.70;77.40;10.60;95448.00;;;;5004746;28;20198;-82
2023/04/14 02:39:13;;;;;;;1.13;1.00;;;10.70;77.40;10.60;95434.00;;;;5042199;28;20677;-82
2023/04/14 02:41:44;;;;;;;0.93;0.93;;;10.70;77.50;10.60;95450.00;;;;5012913;28;20198;-82
2023/04/14 02:44:19;;;;;;;0.83;0.80;;;10.70;77.50;10.60;95444.00;;;;5021727;28;20607;-82
2023/04/14 02:46:53;;;;;;;2.00;0.80;;;10.70;77.40;10.60;95441.00;;;;5022204;28;20303;-82
2023/04/14 02:49:24;;;;;;;1.10;1.00;;;10.70;77.50;10.50;95441.00;;;;5028916;28;20219;-82
2023/04/14 02:51:54;;;;;;;0.70;0.70;;;10.70;77.40;10.50;95438.00;;;;5029701;28;20667;-82
2023/04/14 02:54:23;;;;;;;0.97;0.97;;;10.70;77.40;10.50;95434.00;;;;5019095;28;20305;-83
2023/04/14 02:56:51;;;;;;;0.87;0.83;;;10.60;77.40;10.50;95430.00;;;;5018953;28;20202;-82
2023/04/14 02:59:20;;;;;;;1.00;0.67;;;10.70;77.40;10.50;95422.00;;;;5023454;28;20289;-83
2023/04/14 03:01:58;;;;;;;1.03;0.90;;;10.60;77.20;10.50;95423.00;;;;5021122;28;20742;-83
2023/04/14 03:04:29;;;;;;;1.17;0.60;;;10.60;77.10;10.50;95429.00;;;;5024100;28;20217;-82
2023/04/14 03:06:58;;;;;;;1.40;1.10;;;10.60;77.10;10.40;95427.00;;;;5033599;28;20714;-83
2023/04/14 03:09:27;;;;;;;1.40;1.10;;;10.60;77.30;10.40;95432.00;;;;5017804;28;20198;-82
2023/04/14 03:11:56;;;;;;;1.47;1.10;;;10.60;77.30;10.40;95419.00;;;;5022684;28;20204;-82
2023/04/14 03:14:25;;;;;;;1.13;1.03;;;10.60;77.40;10.40;95420.00;;;;5030650;28;20639;-82
2023/04/14 03:16:53;;;;;;;1.20;1.20;;;10.60;77.40;10.40;95418.00;;;;5016669;28;20236;-82
2023/04/14 03:19:23;;;;;;;1.43;1.33;;;10.50;77.30;10.40;95418.00;;;;5004491;28;20265;-82
2023/04/14 03:21:54;;;;;;;1.50;1.40;;;10.50;77.40;10.40;95419.00;;;;5017440;28;20202;-82
2023/04/14 03:24:26;;;;;;;1.73;1.63;;;10.50;77.40;10.40;95420.00;;;;5032008;28;20237;-82
2023/04/14 03:27:00;;;;;;;1.60;1.50;;;10.50;77.50;10.40;95420.00;;;;5039074;28;20252;-82
2023/04/14 03:29:34;;;;;;;2.33;2.07;;;10.50;77.60;10.40;95416.00;;;;5025224;28;20718;-82
2023/04/14 03:32:05;;;;;;;2.30;2.10;;;10.50;77.60;10.40;95414.00;;;;5021716;28;20290;-82
2023/04/14 03:34:37;;;;;;;2.13;1.93;;;10.50;77.60;10.40;95411.00;;;;5005787;28;20435;-82
2023/04/14 03:37:08;;;;;;;2.50;2.30;;;10.50;77.60;10.40;95401.00;;;;5020549;28;20250;-83
2023/04/14 03:39:39;;;;;;;2.10;2.00;;;10.50;77.70;10.40;95408.00;;;;5027095;28;20232;-82
2023/04/14 03:42:08;;;;;;;2.37;2.27;;;10.50;77.80;10.40;95407.00;;;;5002940;28;20190;-82
2023/04/14 03:44:37;;;;;;;2.87;2.67;;;10.60;77.80;10.40;95421.00;;;;5028860;28;20671;-82
2023/04/14 03:47:07;;;;;;;2.40;2.20;;;10.50;77.70;10.40;95419.00;;;;5028867;28;20226;-82
2023/04/14 03:49:38;;;;;;;2.70;2.50;;;10.50;77.80;10.40;95416.00;;;;5023943;28;20194;-82
2023/04/14 03:52:11;;;;;;;2.73;2.53;;;10.50;78.00;10.50;95424.00;;;;5021715;28;20574;-82
2023/04/14 03:54:43;;;;;;;2.80;2.60;;;10.60;78.00;10.50;95427.00;;;;5025060;28;20203;-82
2023/04/14 03:57:16;;;;;;;3.23;2.90;;;10.60;78.20;10.50;95437.00;;;;4991379;28;20265;-83
2023/04/14 03:59:47;;;;;;;2.90;2.70;;;10.60;78.20;10.50;95434.00;;;;5032301;28;20197;-83
2023/04/14 04:02:15;;;;;;;2.87;2.67;;;10.60;78.30;10.60;95439.00;;;;5008619;28;20714;-82
2023/04/14 04:04:44;;;;;;;3.13;2.83;;;10.60;78.40;10.60;95439.00;;;;5003500;28;20206;-82
2023/04/14 04:07:14;;;;;;;2.90;2.70;;;10.60;78.50;10.60;95451.00;;;;5035073;28;20217;-82
2023/04/14 04:09:43;;;;;;;2.97;2.77;;;10.70;78.60;10.60;95452.00;;;;5026291;28;20194;-82
2023/04/14 04:12:13;;;;;;;3.00;2.70;;;10.70;78.60;10.60;95454.00;;;;5007056;28;20199;-82
2023/04/14 04:14:40;;;;;;;2.87;2.67;;;10.70;78.70;10.60;95451.00;;;;5028631;28;20213;-82
2023/04/14 04:17:09;;;;;;;3.13;2.93;;;10.70;79.00;10.70;95449.00;;;;5009682;28;20217;-82
2023/04/14 04:19:39;;;;;;;3.00;2.73;;;10.70;79.20;10.70;95445.00;;;;5036333;28;20357;-82
2023/04/14 04:22:11;;;;;;;3.20;2.90;;;10.70;79.30;10.70;95452.00;;;;5024564;28;20230;-82
2023/04/14 04:24:41;;;;;;;2.93;2.73;;;10.70;79.50;10.70;95445.00;;;;5042096;28;20204;-81
2023/04/14 04:27:10;;;;;;;3.63;3.33;;;10.70;79.60;10.70;95447.00;;;;5019944;28;20650;-82
2023/04/14 04:29:38;;;;;;;3.10;2.80;;;10.70;79.70;10.60;95444.00;;;;5042755;28;20265;-81
2023/04/14 04:32:06;;;;;;;3.10;2.80;;;10.70;79.80;10.60;95440.00;;;;5043726;28;20282;-81
2023/04/14 04:34:35;;;;;;;3.37;3.07;;;10.70;79.90;10.60;95448.00;;;;5037135;28;20222;-82
2023/04/14 04:37:04;;;;;;;3.33;3.13;;;10.70;79.90;10.60;95445.00;;;;5029856;28;20225;-82
2023/04/14 04:39:32;;;;;;;3.03;2.83;;;10.70;80.00;10.60;95454.00;;;;5027562;28;20214;-82
2023/04/14 04:42:05;;;;;;;3.37;3.13;;;10.60;80.00;10.60;95442.00;;;;5010189;28;20193;-81
2023/04/14 04:44:33;;;;;;;3.57;3.27;;;10.60;80.10;10.50;95443.00;;;;5026762;28;20244;-82
2023/04/14 04:47:01;;;;;;;3.70;3.40;;;10.60;80.30;10.50;95443.00;;;;5026316;28;20249;-82
2023/04/14 04:49:29;;;;;;;3.40;3.20;;;10.60;80.30;10.50;95444.00;;;;5039632;28;20232;-82
2023/04/14 04:51:56;;;;;;;3.70;3.40;;;10.60;80.30;10.50;95443.00;;;;5028313;28;20236;-82
2023/04/14 04:54:23;;;;;;;3.53;3.23;;;10.60;80.40;10.60;95443.00;;;;5029310;28;20222;-82
2023/04/14 04:56:50;;;;;;;3.50;3.23;;;10.60;80.50;10.60;95444.00;;;;5025050;28;20265;-82
2023/04/14 04:59:19;;;;;;;3.30;2.97;;;10.60;80.70;10.60;95450.00;;;;5028527;28;20201;-82
2023/04/14 05:01:46;;;;;;;3.60;3.40;;;10.60;80.90;10.60;95467.00;;;;5024506;28;20637;-82
2023/04/14 05:04:13;;;;;;;4.07;3.70;;;10.60;81.00;10.60;95472.00;;;;5004447;28;20253;-82
2023/04/14 05:06:41;;;;;;;3.60;3.30;;;10.60;81.10;10.60;95470.00;;;;5022196;28;20232;-82
2023/04/14 05:09:08;;;;;;;3.17;2.87;;;10.70;81.20;10.70;95474.00;;;;5008473;28;20201;-82
2023/04/14 05:11:35;;;;;;;3.27;3.07;;;10.70;81.10;10.70;95477.00;;;;5028958;28;20281;-82
2023/04/14 05:14:03;;;;;;;3.73;3.30;;;10.70;81.20;10.70;95485.00;;;;5022529;28;20285;-82
2023/04/14 05:16:32;;;;;;;4.53;3.33;;;10.70;81.30;10.70;95477.00;;;;5028759;28;20201;-82
2023/04/14 05:19:00;;;;;;;3.10;2.90;;;10.70;81.20;10.70;95490.00;;;;5022575;28;20658;-82
2023/04/14 05:21:27;;;;;;;3.30;3.10;;;10.70;81.20;10.70;95487.00;;;;5028555;28;20764;-82
2023/04/14 05:23:54;;;;;;;3.63;3.07;;;10.70;81.20;10.70;95481.00;;;;5012565;28;20211;-82
2023/04/14 05:26:22;;;;;;;3.40;2.83;;;10.70;81.30;10.70;95478.00;;;;5020845;28;20356;-82
2023/04/14 05:28:50;;;;;;;3.40;3.20;;;10.70;81.40;10.70;95481.00;;;;5004129;28;20664;-82
2023/04/14 05:31:17;;;;;;;3.40;2.90;;;10.70;81.40;10.80;95484.00;;;;5022030;28;20205;-82
2023/04/14 05:33:46;;;;;;;3.80;3.10;;;10.70;82.20;10.80;95492.00;;;;5006795;28;20226;-81
2023/04/14 05:36:13;;;;;;;2.90;2.70;;;10.80;81.60;10.80;95483.00;;;;5021689;28;20276;-82
2023/04/14 05:38:43;;;;;;;2.90;2.70;;;10.80;81.60;10.80;95491.00;;;;5019454;28;20201;-82
2023/04/14 05:41:10;;;;;;;2.67;2.47;;;10.80;81.50;10.80;95487.00;;;;5014496;28;20193;-82
2023/04/14 05:43:37;;;;;;;3.10;2.90;;;10.80;81.40;10.80;95483.00;;;;5024192;28;20218;-82
2023/04/14 05:46:05;;;;;;;2.90;2.70;;;10.80;81.20;10.80;95475.00;;;;5009520;28;20820;-82
2023/04/14 05:48:32;;;;;;;4.07;2.83;;;10.80;81.20;10.70;95481.00;;;;5010696;28;20666;-82
2023/04/14 05:51:01;;;;;;;2.73;2.53;;;10.80;81.20;10.70;95485.00;;;;5001202;28;20197;-82
2023/04/14 05:53:29;;;;;;;3.50;3.20;;;10.80;81.10;10.70;95485.00;;;;5000884;28;20220;-82
2023/04/14 05:55:57;;;;;;;3.17;2.70;;;10.80;81.10;10.70;95480.00;;;;5015558;28;20232;-82
2023/04/14 05:58:25;;;;;;;2.77;2.57;;;10.80;81.10;10.70;95477.00;;;;4995806;28;20209;-82
2023/04/14 06:00:53;;;;;;;3.10;2.90;;;10.70;81.10;10.70;95483.00;;;;5018396;28;20264;-82
2023/04/14 06:03:20;;;;;;;3.03;2.53;;;10.80;81.20;10.70;95475.00;;;;5036521;28;20304;-82
2023/04/14 06:05:49;;;;;;;3.50;2.70;;;10.70;81.10;10.70;95482.00;;;;5018369;28;20202;-82
2023/04/14 06:08:21;;;;;;;2.70;2.50;;;10.80;81.30;10.70;95480.00;;;;5011714;28;20217;-82
2023/04/14 06:10:48;;;;;;;2.70;2.50;;;10.80;81.40;10.70;95484.00;;;;5032237;28;20225;-82
2023/04/14 06:13:16;;;;;;;2.53;2.33;;;10.80;81.40;10.70;95481.00;;;;5018393;28;20296;-82
2023/04/14 06:15:43;;;;;;;2.53;2.33;;;10.70;81.60;10.70;95486.00;;;;5025141;28;20205;-80
2023/04/14 06:18:10;;;;;;;2.40;2.20;;;10.70;81.60;10.80;95478.00;;;;5019960;28;20202;-81
2023/04/14 06:20:37;;;;;;;2.50;2.30;;;10.70;81.70;10.80;95483.00;;;;5019561;28;20277;-80
2023/04/14 06:23:05;;;;;;;2.20;2.10;;;10.70;81.70;10.90;95483.00;;;;5022235;28;20296;-80
2023/04/14 06:25:34;;;;;;;2.10;2.00;;;10.80;81.80;10.90;95483.00;;;;5003714;28;20280;-80
2023/04/14 06:28:02;;;;;;;2.20;2.10;;;10.80;81.80;10.90;95490.00;;;;5005484;28;20213;-81
2023/04/14 06:30:31;;;;;;;2.40;2.20;;;10.80;81.80;11.00;95490.00;;;;5013259;28;20198;-81
2023/04/14 06:32:58;;;;;;;2.33;2.10;;;10.80;81.80;11.00;95492.00;;;;5019734;28;20229;-80
2023/04/14 06:35:25;;;;;;;1.93;1.83;;;10.90;81.90;11.00;95499.00;;;;5036277;28;20289;-80
2023/04/14 06:37:53;;;;;;;2.43;2.27;;;10.90;81.90;11.00;95497.00;;;;5000074;28;20208;-80
2023/04/14 06:40:21;;;;;;;2.07;1.97;;;10.90;81.90;11.00;95490.00;;;;5021740;28;20260;-81
2023/04/14 06:42:49;;;;;;;3.93;2.00;;;10.90;81.80;11.10;95493.00;;;;5000982;28;20309;-81
2023/04/14 06:45:17;;;;;;;2.30;2.20;;;11.00;81.90;11.10;95504.00;;;;5017779;28;20205;-80
2023/04/14 06:47:44;;;;;;;2.30;2.10;;;11.00;82.00;11.10;95495.00;;;;5007532;28;20225;-80
2023/04/14 06:50:13;;;;;;;1.60;1.50;;;11.00;82.00;11.20;95491.00;;;;5019539;28;20207;-81
2023/04/14 06:52:40;;;;;;;1.50;1.40;;;11.00;81.90;11.20;95485.00;;;;5030214;28;20209;-81
2023/04/14 06:55:09;;;;;;;1.80;1.70;;;11.10;81.70;11.20;95489.00;;;;5032383;28;20214;-82
2023/04/14 06:57:36;;;;;;;4.40;2.13;;;11.10;81.60;11.20;95486.00;;;;5008124;28;20197;-80
2023/04/14 07:00:08;;;;;;;1.93;1.83;;;11.10;81.50;11.20;95490.00;;;;5014218;28;20292;-82
2023/04/14 07:02:35;;;;;;;1.80;1.70;;;11.10;82.20;11.20;95486.00;;;;5011228;28;20268;-79
2023/04/14 07:05:02;;;;;;;1.57;1.47;;;11.10;81.50;11.10;95481.00;;;;4999477;28;20269;-80
2023/04/14 07:07:34;;;;;;;1.90;1.70;;;11.10;81.20;11.10;95488.00;;;;5002381;28;20316;-81
2023/04/14 07:10:01;;;;;;;1.50;1.40;;;11.10;81.10;11.10;95485.00;;;;4999971;28;20198;-80
2023/04/14 07:12:28;;;;;;;1.70;1.60;;;11.10;81.00;11.10;95480.00;;;;5025179;28;20244;-80
2023/04/14 07:14:55;;;;;;;1.90;1.80;;;11.00;80.90;11.10;95487.00;;;;5036957;28;20300;-80
2023/04/14 07:17:24;;;;;;;1.73;1.63;;;11.00;80.90;11.10;95488.00;;;;5012314;28;20217;-80
2023/04/14 07:19:53;;;;;;;1.77;1.67;;;11.00;81.00;11.00;95480.00;;;;5017666;28;20194;-80
2023/04/14 07:22:20;;;;;;;1.93;1.83;;;11.00;81.10;11.10;95484.00;;;;5017918;28;20332;-80
2023/04/14 07:24:48;;;;;;;2.00;1.90;;;11.00;81.30;11.10;95473.00;;;;5019476;28;20208;-81
2023/04/14 07:27:15;;;;;;;2.10;1.90;;;11.00;81.60;11.10;95483.00;;;;5026726;28;20248;-81
2023/04/14 07:29:42;;;;;;;2.23;2.00;;;11.00;81.70;11.10;95477.00;;;;5036488;28;20973;-81
2023/04/14 07:32:10;;;;;;;2.30;2.20;;;11.00;82.00;11.10;95476.00;;;;5023341;28;20205;-80
2023/04/14 07:34:42;;;;;;;2.33;2.13;;;11.00;82.30;11.20;95476.00;;;;5025865;28;20191;-80
2023/04/14 07:37:10;;;;;;;2.00;1.90;;;11.00;82.40;11.20;95472.00;;;;5027871;28;20212;-80
2023/04/14 07:39:37;;;;;;;2.50;2.30;;;11.10;82.60;11.30;95473.00;;;;5028141;28;20199;-82
2023/04/14 07:42:05;;;;;;;2.70;2.50;;;11.10;82.70;11.30;95468.00;;;;5025048;28;20206;-80
2023/04/14 07:44:32;;;;;;;2.33;2.23;;;11.10;82.60;11.30;95478.00;;;;5028540;28;20281;-81
2023/04/14 07:46:59;;;;;;;2.57;2.37;;;11.10;82.50;11.30;95481.00;;;;5028624;28;20237;-80
2023/04/14 07:49:26;;;;;;;2.40;2.30;;;11.20;82.40;11.40;95482.00;;;;5005527;28;20581;-81
2023/04/14 07:51:55;;;;;;;2.77;2.57;;;11.20;82.40;11.40;95479.00;;;;5007552;28;20198;-80
2023/04/14 07:54:24;;;;;;;3.20;3.00;;;11.20;82.40;11.40;95481.00;;;;5022787;28;20228;-80
2023/04/14 07:56:52;;;;;;;3.10;2.80;;;11.30;82.50;11.40;95481.00;;;;5020441;28;20293;-81
2023/04/14 07:59:20;;;;;;;2.57;2.37;;;11.20;82.30;11.50;95479.00;;;;5021963;28;20694;-80
2023/04/14 08:01:48;;;;;;;2.23;2.03;;;11.30;82.20;11.50;95479.00;;;;5004436;28;20198;-81
2023/04/14 08:04:15;;;;;;;2.40;2.30;;;11.30;82.00;11.50;95481.00;;;;5022001;28;20268;-82
2023/04/14 08:06:42;;;;;;;2.67;2.47;;;11.30;81.80;11.50;95485.00;;;;5024789;28;20213;-81
2023/04/14 08:09:16;;;;;;;2.10;2.00;;;11.40;82.00;11.50;95483.00;;;;5023720;28;20217;-81
2023/04/14 08:11:43;;;;;;;3.10;2.80;;;11.40;81.90;11.50;95495.00;;;;5022891;28;20200;-82
2023/04/14 08:14:10;;;;;;;3.47;3.10;;;11.40;82.00;11.60;95497.00;;;;5024527;28;20309;-80
2023/04/14 08:16:38;;;;;;;2.67;2.50;;;11.40;82.10;11.60;95502.00;;;;5023521;28;20206;-80
2023/04/14 08:19:05;;;;;;;2.47;2.00;;;11.40;82.20;11.60;95510.00;;;;5022249;28;20222;-81
2023/04/14 08:21:32;;;;;;;2.37;2.27;;;11.50;82.10;11.70;95526.00;;;;5024738;28;20198;-79
2023/04/14 08:23:59;;;;;;;2.67;2.43;;;11.50;82.10;11.70;95528.00;;;;5009519;28;20245;-79
2023/04/14 08:26:28;;;;;;;2.23;2.13;;;11.50;82.10;11.70;95524.00;;;;5028982;28;20254;-80
2023/04/14 08:28:56;;;;;;;2.10;1.90;;;11.50;82.10;11.70;95521.00;;;;5022397;28;20309;-80
2023/04/14 08:31:25;;;;;;;2.17;1.93;;;11.60;81.90;11.70;95515.00;;;;5022350;28;20232;-80
2023/04/14 08:33:52;;;;;;;4.73;2.57;;;11.60;81.70;11.70;95526.00;;;;5022826;28;20224;-78
2023/04/14 08:36:20;;;;;;;2.63;2.23;;;11.60;81.60;11.70;95526.00;;;;5026214;28;20193;-79
2023/04/14 08:38:47;;;;;;;1.93;1.83;;;11.60;81.80;11.70;95525.00;;;;5032578;28;20288;-79
2023/04/14 08:41:18;;;;;;;2.40;1.63;;;11.60;81.80;11.80;95527.00;;;;5026272;28;20289;-79
2023/04/14 08:43:47;;;;;;;1.87;1.63;;;11.60;81.80;11.80;95531.00;;;;5025462;28;20282;-79
2023/04/14 08:46:15;;;;;;;2.53;2.33;;;11.70;82.00;11.80;95537.00;;;;5015489;28;20190;-79
2023/04/14 08:48:47;;;;;;;2.30;2.10;;;11.70;82.00;11.80;95540.00;;;;5029074;28;20284;-79
2023/04/14 08:51:27;;;;;;;2.03;1.83;;;11.70;81.70;11.80;95536.00;;;;5022551;28;20754;-79
2023/04/14 08:53:56;;;;;;;1.60;1.50;;;11.70;81.40;11.80;95542.00;;;;5021752;28;20809;-79
2023/04/14 08:56:28;;;;;;;2.03;1.83;;;11.70;81.40;11.80;95541.00;;;;5022827;28;20286;-79
2023/04/14 08:59:00;;;;;;;2.20;1.60;;;11.70;81.30;11.80;95539.00;;;;5022810;28;20229;-79
2023/04/14 09:01:29;;;;;;;1.57;1.47;;;11.70;81.20;11.80;95538.00;;;;5029948;28;20736;-79
2023/04/14 09:03:57;;;;;;;1.23;1.13;;;11.70;81.20;11.80;95533.00;;;;5027944;28;20216;-78
2023/04/14 09:06:25;;;;;;;1.97;1.53;;;11.70;81.10;11.80;95535.00;;;;5025124;28;20205;-79
2023/04/14 09:08:53;;;;;;;1.87;1.50;;;11.70;81.20;11.80;95533.00;;;;5033654;28;20217;-79
2023/04/14 09:11:21;;;;;;;1.70;1.60;;;11.70;81.40;11.80;95524.00;;;;5027717;28;20266;-79
2023/04/14 09:13:50;;;;;;;1.87;1.53;;;11.70;81.40;11.80;95508.00;;;;5027650;28;20225;-79
2023/04/14 09:16:20;;;;;;;1.80;1.50;;;11.70;81.10;11.80;95510.00;;;;5034426;28;20682;-79
2023/04/14 09:18:47;;;;;;;1.57;1.47;;;11.70;81.20;11.90;95507.00;;;;5022209;28;20224;-80
2023/04/14 09:21:17;;;;;;;1.60;1.50;;;11.70;81.30;11.90;95504.00;;;;5009343;28;20287;-80
2023/04/14 09:23:44;;;;;;;1.73;1.63;;;11.70;81.30;11.90;95518.00;;;;5030735;28;20603;-79
2023/04/14 09:26:12;;;;;;;2.13;2.00;;;11.80;81.50;12.00;95518.00;;;;5021127;28;20204;-80
2023/04/14 09:28:40;;;;;;;1.73;1.63;;;11.80;81.60;12.00;95511.00;;;;5022132;28;20229;-80
2023/04/14 09:31:11;;;;;;;2.73;2.03;;;11.80;82.10;12.10;95506.00;;;;5042381;28;20208;-79
2023/04/14 09:33:48;;;;;;;2.30;2.10;;;11.80;81.90;12.20;95501.00;;;;5015503;28;20228;-79
2023/04/14 09:36:22;;;;;;;3.27;2.67;;;11.90;82.00;12.20;95505.00;;;;4997411;28;20240;-80
2023/04/14 09:38:51;;;;;;;6.00;4.57;;;12.00;82.20;12.30;95504.00;;;;5029039;28;20624;-79
2023/04/14 09:41:21;;;;;;;3.53;3.23;;;12.00;82.30;12.40;95505.00;;;;5000239;28;20225;-79
2023/04/14 09:43:51;;;;;;;2.57;2.37;;;12.10;82.50;12.50;95505.00;;;;5000034;28;20768;-80
2023/04/14 09:46:19;;;;;;;2.50;2.30;;;12.10;82.70;12.60;95507.00;;;;5019220;28;20260;-79
2023/04/14 09:48:55;;;;;;;6.03;4.73;;;12.20;82.60;12.60;95506.00;;;;5018299;28;20248;-79
2023/04/14 09:51:27;;;;;;;4.73;3.67;;;12.30;82.10;12.60;95514.00;;;;5018611;28;20315;-79
2023/04/14 09:53:54;;;;;;;3.23;2.97;;;12.30;82.10;12.60;95522.00;;;;5023233;28;20213;-80
2023/04/14 09:56:28;;;;;;;3.80;3.00;;;12.30;81.90;12.60;95534.00;;;;5013425;28;20253;-79
2023/04/14 09:58:59;;;;;;;4.43;3.80;;;12.40;81.40;12.60;95529.00;;;;5017961;28;20232;-80
2023/04/14 10:01:32;;;;;;;4.27;3.43;;;12.40;81.20;12.60;95538.00;;;;5017951;28;20281;-80
2023/04/14 10:04:02;;;;;;;3.70;3.30;;;12.40;81.10;12.60;95531.00;;;;5022137;28;20224;-80
2023/04/14 10:06:31;;;;;;;3.17;2.97;;;12.40;80.90;12.60;95527.00;;;;5026232;28;20206;-80
2023/04/14 10:08:59;;;;;;;2.40;2.17;;;12.40;81.10;12.70;95523.00;;;;5028576;28;20230;-81
2023/04/14 10:11:29;;;;;;;2.60;2.40;;;12.50;81.40;12.80;95526.00;;;;5002235;28;20198;-81
2023/04/14 10:13:58;;;;;;;2.47;2.30;;;12.50;81.40;12.80;95526.00;;;;5018204;28;20242;-81
2023/04/14 10:16:26;;;;;;;3.37;2.00;;;12.50;81.40;12.90;95526.00;;;;5019256;28;20747;-81
2023/04/14 10:18:55;;;;;;;2.33;2.23;;;12.60;81.40;12.90;95531.00;;;;5018543;28;20236;-81
2023/04/14 10:21:26;;;;;;;2.83;2.63;;;12.60;81.20;12.90;95518.00;;;;5001265;28;20225;-81
2023/04/14 10:23:56;;;;;;;2.83;2.63;;;12.70;81.40;13.00;95528.00;;;;5028844;28;20221;-81
2023/04/14 10:26:25;;;;;;;3.30;3.00;;;12.70;81.40;13.10;95518.00;;;;5034944;28;20587;-80
2023/04/14 10:28:54;;;;;;;2.70;2.50;;;12.70;81.70;13.10;95530.00;;;;5039966;28;20239;-81
2023/04/14 10:31:29;;;;;;;2.40;2.20;;;12.80;81.60;13.10;95535.00;;;;5020256;28;20229;-81
2023/04/14 10:33:57;;;;;;;2.27;2.17;;;12.80;81.10;13.10;95529.00;;;;5022769;28;20231;-80
2023/04/14 10:36:30;;;;;;;2.27;2.10;;;12.90;80.80;13.10;95530.00;;;;5040257;28;20202;-80
2023/04/14 10:39:04;;;;;;;2.30;2.10;;;12.80;80.50;13.20;95525.00;;;;5038472;28;20734;-80
2023/04/14 10:41:46;;;;;;;2.40;2.20;;;12.90;80.80;13.30;95522.00;;;;5002991;28;20205;-81
2023/04/14 10:44:28;;;;;;;2.60;2.40;;;12.90;80.90;13.30;95513.00;;;;5010347;28;20218;-82
2023/04/14 10:46:57;;;;;;;2.30;2.10;;;13.00;81.30;13.40;95514.00;;;;5017156;28;20665;-81
2023/04/14 10:49:30;;;;;;;2.40;2.20;;;13.00;81.40;13.40;95510.00;;;;5020333;28;20275;-81
2023/04/14 10:52:02;;;;;;;2.67;2.17;;;13.10;81.10;13.40;95511.00;;;;5035385;28;20904;-82
2023/04/14 10:54:48;;;;;;;2.60;2.40;;;13.10;80.70;13.40;95515.00;;;;5029537;28;20288;-83
2023/04/14 10:57:17;;;;;;;2.40;2.20;;;13.20;80.90;13.50;95506.00;;;;5020360;28;20269;-81
2023/04/14 10:59:47;;;;;;;2.10;2.00;;;13.20;80.80;13.50;95507.00;;;;5030220;28;20206;-82
2023/04/14 11:02:27;;;;;;;2.53;2.33;;;13.20;80.80;13.60;95502.00;;;;5021826;28;20222;-82
2023/04/14 11:05:07;;;;;;;2.30;2.10;;;13.30;80.50;13.70;95491.00;;;;5020456;28;20206;-81